Other Surface Observations
Issued by NWS Missoula, MT

Home | Current Version | Previous Version | Text Only | Print | Product List | Glossary On
Versions: 1 2 3 4 5 6 7 8 9 10 11 12 13 14 15 16 17 18 19 20 21 22 23 24 25 26 27 28 29 30 31 32 33 34 35 36 37 38 39 40 41 42 43 44 45 46 47 48 49 50
000
SXUS55 KMSO 201723
OSOMSO
MONTANA AWOS SUMMARY
NATIONAL WEATHER SERVICE MISSOULA MT
1123 AM MDT WED AUG 20 2014

Montana AWOS Reports

LAUREL      |K6S8 201715Z AUTO 00000KT 25SM 22/09 A2988 RMK AO1 T02170089
ROUNDUP     |KRPX 201715Z AUTO 27004KT 25SM 19/12 A2980 RMK AO1 T01940117
MALTA       |KM75 201715Z AUTO 28009G15KT 40SM 23/13 A2975 RMK AO1 T02280128




USA.gov is the U.S. government's official web portal to all federal, state and local government web resources and services.